Time;durP1;ratioP1;P1;durP2;ratioP2;P2;SDS_P1;SDS_P2;PMS_P1;PMS_P2;Temp;Humidity;BMP_temperature;BMP_pressure;BME280_temperature;BME280_humidity;BME280_pressure;Samples;Min_cycle;Max_cycle;Signal;HPM_P1;HPM_P2
2024/01/25 00:01:10;;;;;;;;;;;;;;;13.20;55.34;101753.88;4958152;29;6792;-75
2024/01/25 00:03:36;;;;;;;;;;;;;;;13.19;55.11;101761.53;4947730;29;8340;-75
2024/01/25 00:06:02;;;;;;;;;;;;;;;13.19;55.05;101756.38;4962332;28;6848;-75
2024/01/25 00:08:27;;;;;;;;;;;;;;;13.18;55.34;101763.22;4961300;28;6979;-75
2024/01/25 00:10:53;;;;;;;;;;;;;;;13.17;55.42;101747.66;4962864;28;6971;-75
2024/01/25 00:13:19;;;;;;;;;;;;;;;13.14;55.29;101755.22;4972860;28;6840;-75
2024/01/25 00:15:44;;;;;;;;;;;;;;;13.12;55.78;101761.97;4947018;28;6960;-75
2024/01/25 00:18:10;;;;;;;;;;;;;;;13.10;55.35;101753.25;4964002;28;6772;-77
2024/01/25 00:20:36;;;;;;;;;;;;;;;13.09;55.26;101756.66;4944790;28;6928;-75
2024/01/25 00:23:01;;;;;;;;;;;;;;;13.06;55.13;101741.91;4962500;28;6837;-75
2024/01/25 00:25:27;;;;;;;;;;;;;;;13.04;55.94;101740.94;4960368;28;7823;-75
2024/01/25 00:27:53;;;;;;;;;;;;;;;13.02;55.35;101742.50;4960991;28;6986;-75
2024/01/25 00:30:18;;;;;;;;;;;;;;;13.04;55.76;101751.22;4960790;28;6999;-75
2024/01/25 00:32:44;;;;;;;;;;;;;;;13.05;55.86;101740.13;4952060;29;7023;-75
2024/01/25 00:35:13;;;;;;;;;;;;;;;13.06;55.74;101740.19;4978732;28;6930;-76
2024/01/25 00:37:40;;;;;;;;;;;;;;;13.05;55.99;101743.56;4931479;28;7257;-73
2024/01/25 00:40:07;;;;;;;;;;;;;;;13.04;55.43;101761.50;4924214;29;6986;-74
2024/01/25 00:42:42;;;;;;;;;;;;;;;13.01;55.85;101767.34;4919453;29;6991;-74
2024/01/25 00:45:09;;;;;;;;;;;;;;;13.00;55.84;101759.53;4942746;28;6804;-74
2024/01/25 00:47:35;;;;;;;;;;;;;;;12.99;55.63;101750.03;4927564;28;7069;-73
2024/01/25 00:50:01;;;;;;;;;;;;;;;12.97;55.66;101752.50;4959902;28;7209;-73
2024/01/25 00:52:27;;;;;;;;;;;;;;;12.95;55.46;101764.41;4945953;28;8854;-73
2024/01/25 00:54:53;;;;;;;;;;;;;;;12.92;55.75;101766.81;4942510;28;7160;-73
2024/01/25 00:57:18;;;;;;;;;;;;;;;12.89;55.55;101764.03;4946413;28;6784;-73
2024/01/25 00:59:44;;;;;;;;;;;;;;;12.83;55.88;101767.13;4929155;28;7122;-73
2024/01/25 01:02:13;;;;;;;;;;;;;;;12.80;55.06;101756.66;4943396;28;7169;-74
2024/01/25 01:04:42;;;;;;;;;;;;;;;12.72;55.43;101756.19;4951699;28;6820;-73
2024/01/25 01:07:08;;;;;;;;;;;;;;;12.66;55.53;101760.09;4943858;28;8446;-75
2024/01/25 01:09:34;;;;;;;;;;;;;;;12.60;56.17;101769.19;4934781;28;7008;-74
2024/01/25 01:12:00;;;;;;;;;;;;;;;12.56;56.35;101761.19;4943462;28;6975;-75
2024/01/25 01:14:25;;;;;;;;;;;;;;;12.53;56.44;101763.59;4943948;28;7011;-75
2024/01/25 01:16:51;;;;;;;;;;;;;;;12.50;56.10;101759.13;4941576;28;6780;-74
2024/01/25 01:19:17;;;;;;;;;;;;;;;12.50;57.11;101769.41;4942743;28;7177;-73
2024/01/25 01:21:43;;;;;;;;;;;;;;;12.52;57.09;101765.25;4943125;28;6975;-73
2024/01/25 01:24:13;;;;;;;;;;;;;;;12.58;57.41;101769.88;4936974;28;7009;-74
2024/01/25 01:26:38;;;;;;;;;;;;;;;12.64;56.58;101770.28;4937016;28;6986;-75
2024/01/25 01:29:04;;;;;;;;;;;;;;;12.68;57.15;101777.38;4955354;28;7133;-74
2024/01/25 01:31:30;;;;;;;;;;;;;;;12.73;56.66;101763.13;4940870;28;6846;-75
2024/01/25 01:33:57;;;;;;;;;;;;;;;12.75;56.48;101774.38;4927523;28;6951;-75
2024/01/25 01:36:23;;;;;;;;;;;;;;;12.74;57.17;101772.59;4940434;28;7412;-75
2024/01/25 01:38:49;;;;;;;;;;;;;;;12.70;56.48;101768.09;4929490;28;6969;-73
2024/01/25 01:41:14;;;;;;;;;;;;;;;12.64;55.98;101748.00;4932786;28;7145;-74
2024/01/25 01:43:40;;;;;;;;;;;;;;;12.57;56.39;101760.38;4956133;28;6808;-73
2024/01/25 01:46:34;;;;;;;;;;;;;;;12.46;56.88;101762.31;4943747;28;7211;-76
2024/01/25 01:49:01;;;;;;;;;;;;;;;12.39;57.12;101767.88;4943137;28;7134;-73
2024/01/25 01:51:28;;;;;;;;;;;;;;;12.32;56.43;101764.91;4937744;28;6996;-74
2024/01/25 01:53:55;;;;;;;;;;;;;;;12.26;57.29;101774.78;4942961;28;6953;-76
2024/01/25 01:56:23;;;;;;;;;;;;;;;12.20;56.84;101774.41;4942782;28;6996;-73
2024/01/25 01:58:49;;;;;;;;;;;;;;;12.13;57.24;101779.94;4927545;28;6992;-75
2024/01/25 02:01:15;;;;;;;;;;;;;;;12.06;56.77;101782.13;4942360;28;7228;-74
2024/01/25 02:03:41;;;;;;;;;;;;;;;12.01;56.86;101786.06;4933401;28;7415;-73
2024/01/25 02:06:07;;;;;;;;;;;;;;;11.95;56.94;101776.28;4943612;28;7083;-74
2024/01/25 02:08:33;;;;;;;;;;;;;;;11.91;57.58;101794.84;4952865;28;6768;-73
2024/01/25 02:10:58;;;;;;;;;;;;;;;11.87;57.42;101792.88;4939568;28;6785;-73
2024/01/25 02:13:24;;;;;;;;;;;;;;;11.82;57.26;101786.53;4938914;28;6926;-74
2024/01/25 02:15:49;;;;;;;;;;;;;;;11.78;57.80;101793.19;4943191;28;6940;-73
2024/01/25 02:18:15;;;;;;;;;;;;;;;11.75;57.88;101803.22;4927469;28;7285;-76
2024/01/25 02:20:41;;;;;;;;;;;;;;;11.73;57.56;101809.03;4929388;28;6971;-74
2024/01/25 02:23:06;;;;;;;;;;;;;;;11.67;57.48;101805.31;4942067;28;6768;-75
2024/01/25 02:25:32;;;;;;;;;;;;;;;11.65;58.35;101812.03;4943262;28;7271;-74
2024/01/25 02:27:58;;;;;;;;;;;;;;;11.64;57.87;101819.63;4941790;28;7102;-74
2024/01/25 02:30:23;;;;;;;;;;;;;;;11.61;58.22;101810.03;4956807;28;6785;-75
2024/01/25 02:32:49;;;;;;;;;;;;;;;11.58;58.26;101816.63;4933772;28;6953;-75
2024/01/25 02:35:15;;;;;;;;;;;;;;;11.55;58.05;101812.19;4941176;28;6781;-76
2024/01/25 02:37:41;;;;;;;;;;;;;;;11.50;57.98;101805.84;4955595;28;7186;-74
2024/01/25 02:40:07;;;;;;;;;;;;;;;11.48;58.61;101812.56;4924521;28;7190;-74
2024/01/25 02:42:33;;;;;;;;;;;;;;;11.45;58.29;101820.94;4942552;28;6829;-74
2024/01/25 02:44:58;;;;;;;;;;;;;;;11.42;58.36;101810.50;4952287;28;6799;-76
2024/01/25 02:47:24;;;;;;;;;;;;;;;11.39;58.13;101813.72;4943349;28;6999;-76
2024/01/25 02:49:49;;;;;;;;;;;;;;;11.37;58.70;101811.84;4936398;28;6963;-74
2024/01/25 02:52:15;;;;;;;;;;;;;;;11.32;58.68;101816.66;4941821;28;6867;-75
2024/01/25 02:54:41;;;;;;;;;;;;;;;11.31;58.65;101829.41;4943539;28;6784;-74
2024/01/25 02:57:07;;;;;;;;;;;;;;;11.28;58.32;101834.31;4947469;28;6776;-76
2024/01/25 02:59:34;;;;;;;;;;;;;;;11.25;58.77;101840.13;4977976;28;6783;-76
2024/01/25 03:02:00;;;;;;;;;;;;;;;11.23;58.79;101844.28;4945563;28;6980;-76
2024/01/25 03:04:25;;;;;;;;;;;;;;;11.18;58.96;101838.81;4946714;28;7183;-76
2024/01/25 03:06:51;;;;;;;;;;;;;;;11.14;58.92;101836.84;4953999;28;7134;-76
2024/01/25 03:09:17;;;;;;;;;;;;;;;11.11;58.59;101842.66;4961096;28;7189;-76
2024/01/25 03:11:42;;;;;;;;;;;;;;;11.06;58.73;101848.25;4946716;28;7305;-76
2024/01/25 03:14:08;;;;;;;;;;;;;;;11.05;58.88;101854.16;4961176;28;6769;-76
2024/01/25 03:16:36;;;;;;;;;;;;;;;11.00;58.66;101856.41;4945846;28;6943;-76
2024/01/25 03:19:02;;;;;;;;;;;;;;;10.96;58.80;101864.66;4961922;28;6776;-76
2024/01/25 03:21:29;;;;;;;;;;;;;;;10.92;58.83;101860.13;4970232;28;6752;-76
2024/01/25 03:23:54;;;;;;;;;;;;;;;10.89;58.93;101863.34;4961222;28;6986;-76
2024/01/25 03:26:20;;;;;;;;;;;;;;;10.85;58.57;101858.81;4962010;28;6749;-76
2024/01/25 03:28:46;;;;;;;;;;;;;;;10.81;59.36;101852.56;4960472;28;7003;-76
2024/01/25 03:31:11;;;;;;;;;;;;;;;10.79;59.10;101854.13;4963257;28;6976;-75
2024/01/25 03:33:37;;;;;;;;;;;;;;;10.76;59.32;101848.75;4945719;28;6822;-76
2024/01/25 03:36:04;;;;;;;;;;;;;;;10.74;59.20;101844.34;4959902;28;6760;-76
2024/01/25 03:38:30;;;;;;;;;;;;;;;10.70;58.95;101843.22;4962447;28;6952;-75
2024/01/25 03:40:58;;;;;;;;;;;;;;;10.69;59.54;101846.56;4973287;28;6784;-76
2024/01/25 03:43:24;;;;;;;;;;;;;;;10.67;59.33;101849.03;4960967;28;6961;-76
2024/01/25 03:45:49;;;;;;;;;;;;;;;10.65;59.48;101840.34;4962421;28;6958;-75
2024/01/25 03:48:15;;;;;;;;;;;;;;;10.63;59.39;101838.44;4960936;28;6944;-76
2024/01/25 03:50:41;;;;;;;;;;;;;;;10.61;59.86;101832.31;4962516;28;6906;-77
2024/01/25 03:58:18;;;;;;;;;;;;;;;10.54;59.61;101843.81;3096502;23;7028;-76
2024/01/25 04:00:44;;;;;;;;;;;;;;;10.52;59.87;101840.22;4989130;28;7126;-77
2024/01/25 04:08:21;;;;;;;;;;;;;;;10.45;60.13;101846.59;4554082;23;6900;-77
2024/01/25 04:10:46;;;;;;;;;;;;;;;10.42;59.94;101852.38;4956614;28;6974;-77
2024/01/25 04:13:12;;;;;;;;;;;;;;;10.41;59.52;101855.72;4962074;28;7329;-77
2024/01/25 04:15:38;;;;;;;;;;;;;;;10.38;59.54;101850.38;4953399;28;7190;-77
2024/01/25 04:18:03;;;;;;;;;;;;;;;10.36;59.83;101835.66;4940240;28;6997;-77
2024/01/25 04:20:29;;;;;;;;;;;;;;;10.35;59.94;101845.03;4956569;28;6961;-77
2024/01/25 04:22:55;;;;;;;;;;;;;;;10.32;60.26;101844.78;4964025;28;6940;-77
2024/01/25 04:25:21;;;;;;;;;;;;;;;10.30;60.20;101848.03;4941595;28;6971;-77
2024/01/25 04:27:47;;;;;;;;;;;;;;;10.27;60.41;101851.25;4969905;28;7967;-77
2024/01/25 04:30:13;;;;;;;;;;;;;;;10.26;59.78;101845.22;4956914;28;7376;-76
2024/01/25 04:32:40;;;;;;;;;;;;;;;10.25;59.95;101847.72;4978860;28;13513;-77
2024/01/25 04:35:06;;;;;;;;;;;;;;;10.23;60.13;101844.13;4939700;28;7806;-76
2024/01/25 04:37:31;;;;;;;;;;;;;;;10.23;60.17;101854.38;4975371;28;6971;-79
2024/01/25 04:39:57;;;;;;;;;;;;;;;10.17;60.69;101854.81;4955585;28;6768;-77
2024/01/25 04:42:22;;;;;;;;;;;;;;;10.16;60.42;101849.59;4956586;28;6788;-78
2024/01/25 04:44:48;;;;;;;;;;;;;;;10.15;60.22;101846.13;4953926;28;6943;-77
2024/01/25 04:47:14;;;;;;;;;;;;;;;10.12;60.27;101849.34;4956457;28;7308;-77
2024/01/25 04:49:40;;;;;;;;;;;;;;;10.10;60.50;101842.38;4956665;28;6784;-77
2024/01/25 04:52:06;;;;;;;;;;;;;;;10.08;60.54;101833.66;4940573;28;8206;-77
2024/01/25 04:54:32;;;;;;;;;;;;;;;10.04;60.73;101831.66;4960402;28;6906;-77
2024/01/25 04:56:58;;;;;;;;;;;;;;;10.03;60.56;101835.00;4973342;28;6780;-77
2024/01/25 04:59:23;;;;;;;;;;;;;;;9.96;60.64;101831.97;4958210;28;7127;-77
2024/01/25 05:01:49;;;;;;;;;;;;;;;9.94;59.99;101836.09;4955213;28;6780;-77
2024/01/25 05:04:16;;;;;;;;;;;;;;;9.90;60.18;101833.19;4953527;28;7290;-77
2024/01/25 05:06:42;;;;;;;;;;;;;;;9.86;60.03;101843.22;4955017;28;7300;-76
2024/01/25 05:09:08;;;;;;;;;;;;;;;9.84;60.56;101838.75;4953725;28;8064;-76
2024/01/25 05:11:40;;;;;;;;;;;;;;;9.80;60.34;101835.09;4972688;28;6973;-77
2024/01/25 05:14:07;;;;;;;;;;;;;;;9.80;60.15;101844.41;4958789;28;6985;-77
2024/01/25 05:16:33;;;;;;;;;;;;;;;9.79;60.41;101847.75;4960056;28;6804;-78
2024/01/25 05:18:58;;;;;;;;;;;;;;;9.76;60.39;101848.44;4966350;28;7205;-77
2024/01/25 05:21:25;;;;;;;;;;;;;;;9.76;60.50;101845.88;4972086;28;6952;-77
2024/01/25 05:23:50;;;;;;;;;;;;;;;9.76;60.78;101855.22;4965700;28;7151;-77
2024/01/25 05:26:17;;;;;;;;;;;;;;;9.74;60.63;101860.22;4964631;28;7903;-77
2024/01/25 05:28:42;;;;;;;;;;;;;;;9.72;60.63;101855.00;4947677;28;7447;-78
2024/01/25 05:31:12;;;;;;;;;;;;;;;9.72;60.55;101856.66;4948390;28;6952;-78
2024/01/25 05:33:42;;;;;;;;;;;;;;;9.70;60.64;101856.53;4959162;28;7249;-77
2024/01/25 05:36:09;;;;;;;;;;;;;;;9.68;60.98;101857.22;4950038;28;7049;-77
2024/01/25 05:38:35;;;;;;;;;;;;;;;9.67;60.15;101860.56;4982362;28;6964;-77
2024/01/25 05:41:01;;;;;;;;;;;;;;;9.64;60.46;101860.31;4956167;28;6966;-77
2024/01/25 05:43:26;;;;;;;;;;;;;;;9.61;60.24;101855.88;4958266;28;7242;-77
2024/01/25 05:45:52;;;;;;;;;;;;;;;9.56;60.41;101858.09;4967158;28;6784;-78
2024/01/25 05:48:18;;;;;;;;;;;;;;;9.53;60.21;101856.97;4967915;28;6959;-77
2024/01/25 05:50:43;;;;;;;;;;;;;;;9.48;60.48;101856.63;4947889;28;6955;-77
2024/01/25 05:53:09;;;;;;;;;;;;;;;9.48;60.17;101863.38;4967870;28;6780;-77
2024/01/25 05:55:34;;;;;;;;;;;;;;;9.45;60.78;101852.16;4947317;28;6942;-77
2024/01/25 05:58:00;;;;;;;;;;;;;;;9.43;60.29;101856.25;4963160;28;6835;-77
2024/01/25 06:00:26;;;;;;;;;;;;;;;9.42;61.23;101861.25;4968192;28;6772;-77
2024/01/25 06:02:51;;;;;;;;;;;;;;;9.39;60.67;101858.47;4966402;28;6987;-77
2024/01/25 06:05:18;;;;;;;;;;;;;;;9.39;60.93;101863.59;4964883;28;6776;-77
2024/01/25 06:07:44;;;;;;;;;;;;;;;9.37;61.12;101866.03;4966050;28;6796;-77
2024/01/25 06:10:10;;;;;;;;;;;;;;;9.36;61.13;101868.44;4963599;28;7498;-77
2024/01/25 06:12:35;;;;;;;;;;;;;;;9.36;61.14;101869.34;4952819;28;6874;-77
2024/01/25 06:15:01;;;;;;;;;;;;;;;9.35;61.17;101879.47;4965822;28;7237;-77
2024/01/25 06:17:26;;;;;;;;;;;;;;;9.34;61.23;101887.91;4972511;28;7163;-77
2024/01/25 06:19:52;;;;;;;;;;;;;;;9.30;60.65;101879.09;4968965;28;7201;-77
2024/01/25 06:22:18;;;;;;;;;;;;;;;9.28;60.97;101881.56;4965909;28;6780;-77
2024/01/25 06:24:44;;;;;;;;;;;;;;;9.26;60.87;101877.97;4979932;28;6925;-77
2024/01/25 06:27:10;;;;;;;;;;;;;;;9.26;61.56;101872.84;4961728;28;6844;-77
2024/01/25 06:29:36;;;;;;;;;;;;;;;9.26;61.32;101877.97;4959971;28;6796;-77
2024/01/25 06:32:01;;;;;;;;;;;;;;;9.26;61.21;101872.84;4962411;28;6970;-77
2024/01/25 06:34:28;;;;;;;;;;;;;;;9.26;61.68;101870.31;4964821;28;6924;-77
2024/01/25 06:36:53;;;;;;;;;;;;;;;9.26;61.41;101861.75;4963323;28;7200;-77
2024/01/25 06:39:19;;;;;;;;;;;;;;;9.26;61.89;101875.41;4953879;28;6952;-77
2024/01/25 06:41:44;;;;;;;;;;;;;;;9.25;61.35;101881.31;4972957;28;6942;-79
2024/01/25 06:44:10;;;;;;;;;;;;;;;9.26;61.97;101883.09;4955469;28;7264;-79
2024/01/25 06:46:36;;;;;;;;;;;;;;;9.27;62.04;101895.13;4959611;28;6919;-78
2024/01/25 06:49:02;;;;;;;;;;;;;;;9.28;61.21;101891.81;4967821;28;8074;-77
2024/01/25 06:51:28;;;;;;;;;;;;;;;9.26;61.68;101888.22;4961284;28;6796;-77
2024/01/25 06:53:54;;;;;;;;;;;;;;;9.26;61.97;101892.44;4964822;28;7003;-77
2024/01/25 06:56:20;;;;;;;;;;;;;;;9.27;62.25;101904.47;4968678;28;8787;-77
2024/01/25 06:58:45;;;;;;;;;;;;;;;9.27;62.05;101901.91;4957874;28;6780;-77
2024/01/25 07:01:11;;;;;;;;;;;;;;;9.26;62.04;101906.13;4960219;28;7090;-78
2024/01/25 07:14:13;;;;;;;;;;;;;;;9.12;61.37;101922.06;6079736;22;1428244;-78
2024/01/25 07:16:39;;;;;;;;;;;;;;;9.06;61.31;101921.59;6078981;23;6998;-77
2024/01/25 07:19:04;;;;;;;;;;;;;;;8.99;61.60;101921.13;6026660;23;6935;-77
2024/01/25 07:21:33;;;;;;;;;;;;;;;8.94;61.16;101917.28;6025151;23;8328;-77
2024/01/25 07:24:03;;;;;;;;;;;;;;;8.90;61.27;101910.16;6051903;23;6791;-77
2024/01/25 07:26:30;;;;;;;;;;;;;;;8.88;62.08;101910.03;6026993;23;6948;-77
2024/01/25 07:28:58;;;;;;;;;;;;;;;8.87;61.79;101928.72;6053678;23;6776;-77
2024/01/25 07:31:27;;;;;;;;;;;;;;;8.87;61.49;101922.69;6046492;23;6787;-77
2024/01/25 07:33:55;;;;;;;;;;;;;;;8.87;61.87;101927.81;6047340;23;7063;-77
2024/01/25 07:36:20;;;;;;;;;;;;;;;8.88;62.42;101929.59;6045726;23;7113;-76
2024/01/25 07:38:47;;;;;;;;;;;;;;;8.90;61.70;101928.06;6046697;23;6759;-77
2024/01/25 07:41:15;;;;;;;;;;;;;;;8.93;61.62;101935.97;6045844;23;6779;-77
2024/01/25 07:43:42;;;;;;;;;;;;;;;8.95;62.52;101928.44;6048052;23;6974;-77
2024/01/25 07:46:10;;;;;;;;;;;;;;;8.96;62.27;101923.41;6022280;23;6969;-77
2024/01/25 07:48:35;;;;;;;;;;;;;;;8.98;62.25;101924.47;6022832;23;6958;-77
2024/01/25 07:51:01;;;;;;;;;;;;;;;9.00;62.41;101935.69;6045956;23;6830;-77
2024/01/25 07:53:27;;;;;;;;;;;;;;;9.01;62.00;101939.13;6045526;23;6767;-77
2024/01/25 07:55:52;;;;;;;;;;;;;;;9.02;61.96;101926.47;6045653;23;6792;-77
2024/01/25 07:58:18;;;;;;;;;;;;;;;9.07;62.87;101925.94;6044733;23;6783;-76
2024/01/25 08:00:45;;;;;;;;;;;;;;;9.11;62.62;101930.53;6044103;23;6927;-77
2024/01/25 08:03:11;;;;;;;;;;;;;;;9.18;62.77;101922.56;6040450;23;7230;-77
2024/01/25 08:05:37;;;;;;;;;;;;;;;9.24;63.14;101923.03;6043379;23;6767;-77
2024/01/25 08:08:03;;;;;;;;;;;;;;;9.31;62.96;101932.97;6043500;23;6895;-77
2024/01/25 08:10:28;;;;;;;;;;;;;;;9.41;62.56;101934.56;6018681;23;7221;-77
2024/01/25 08:12:54;;;;;;;;;;;;;;;9.49;62.67;101927.50;6066217;23;6980;-76
2024/01/25 08:15:20;;;;;;;;;;;;;;;9.57;63.18;101926.41;6036144;23;6763;-77
2024/01/25 08:17:45;;;;;;;;;;;;;;;9.67;62.60;101930.56;6033657;23;6811;-76
2024/01/25 08:20:13;;;;;;;;;;;;;;;9.76;63.18;101934.59;6010432;23;6986;-76
2024/01/25 08:22:41;;;;;;;;;;;;;;;9.81;62.46;101930.72;6012570;23;7094;-77
2024/01/25 08:25:07;;;;;;;;;;;;;;;9.86;63.23;101919.16;6035301;23;6945;-77
2024/01/25 08:27:33;;;;;;;;;;;;;;;9.92;62.74;101927.31;6035624;23;6787;-77
2024/01/25 08:29:59;;;;;;;;;;;;;;;9.98;62.71;101934.56;6036044;23;6966;-77
2024/01/25 08:32:25;;;;;;;;;;;;;;;10.03;62.90;101927.22;6058760;23;6949;-76
2024/01/25 08:34:51;;;;;;;;;;;;;;;10.07;62.70;101932.69;6059529;23;6907;-77
2024/01/25 08:37:16;;;;;;;;;;;;;;;10.11;62.94;101915.88;6058569;23;6762;-77
2024/01/25 08:39:43;;;;;;;;;;;;;;;10.17;63.15;101918.00;6035613;23;6831;-76
2024/01/25 08:42:09;;;;;;;;;;;;;;;10.24;63.12;101922.81;6034719;23;6987;-77
2024/01/25 08:44:34;;;;;;;;;;;;;;;10.30;63.09;101923.22;6011087;23;6778;-77
2024/01/25 08:47:00;;;;;;;;;;;;;;;10.36;62.93;101912.53;6069842;23;6880;-75
2024/01/25 08:49:26;;;;;;;;;;;;;;;10.41;63.38;101908.66;6061629;23;6960;-76
2024/01/25 08:51:51;;;;;;;;;;;;;;;10.47;62.99;101909.09;6062431;23;8386;-75
2024/01/25 08:54:17;;;;;;;;;;;;;;;10.55;62.95;101919.94;6084610;23;7153;-76
2024/01/25 08:56:42;;;;;;;;;;;;;;;10.63;62.78;101921.41;6037627;23;6923;-75
2024/01/25 08:59:08;;;;;;;;;;;;;;;10.73;62.83;101896.41;6084500;23;6763;-76
2024/01/25 09:01:34;;;;;;;;;;;;;;;10.82;63.12;101889.38;6058913;23;6916;-75
2024/01/25 09:04:02;;;;;;;;;;;;;;;10.93;62.87;101901.28;6085127;23;6743;-75
2024/01/25 09:06:30;;;;;;;;;;;;;;;11.04;62.97;101911.41;6061281;23;7278;-75
2024/01/25 09:08:56;;;;;;;;;;;;;;;11.13;63.35;101917.19;6061068;23;8449;-76
2024/01/25 09:11:22;;;;;;;;;;;;;;;11.25;63.12;101924.81;6085284;23;6948;-76
2024/01/25 09:13:47;;;;;;;;;;;;;;;11.33;62.87;101912.53;6084134;23;6751;-77
2024/01/25 09:16:15;;;;;;;;;;;;;;;11.44;62.62;101913.25;6059706;23;6761;-76
2024/01/25 09:26:27;;;;;;;;;;;;;;;11.81;62.41;101914.09;6078325;23;7483;-82
2024/01/25 09:29:28;;;;;;;;;;;;;;;11.91;62.37;101920.72;6095009;23;6987;-81
2024/01/25 09:31:54;;;;;;;;;;;;;;;11.97;61.63;101921.94;6070594;23;6799;-82
2024/01/25 09:34:21;;;;;;;;;;;;;;;12.01;61.77;101911.97;6013191;23;7328;-82
2024/01/25 09:48:14;;;;;;;;;;;;;;;12.15;61.72;101928.34;6032921;23;7100;-86
2024/01/25 09:52:02;;;;;;;;;;;;;;;;;;;;;
2024/01/25 09:59:39;;;;;;;;;;;;;;;12.36;60.78;101923.72;6062316;23;7035;-76
2024/01/25 10:02:05;;;;;;;;;;;;;;;12.44;60.53;101923.31;6083025;23;6763;-76
2024/01/25 10:04:30;;;;;;;;;;;;;;;12.48;60.75;101915.00;6090235;23;6911;-76
2024/01/25 10:06:57;;;;;;;;;;;;;;;12.56;60.83;101924.13;6090216;23;6902;-76
2024/01/25 10:09:23;;;;;;;;;;;;;;;12.62;60.63;101921.91;6065351;23;6988;-77
2024/01/25 10:11:49;;;;;;;;;;;;;;;12.73;60.65;101921.72;6088149;23;6763;-76
2024/01/25 10:14:14;;;;;;;;;;;;;;;12.79;59.38;101922.13;6062874;23;7350;-77
2024/01/25 10:16:40;;;;;;;;;;;;;;;12.88;60.50;101927.84;6088211;23;6911;-76
2024/01/25 10:19:09;;;;;;;;;;;;;;;12.98;59.93;101931.88;6090211;23;6845;-75
2024/01/25 10:21:36;;;;;;;;;;;;;;;13.15;60.12;101943.22;6090336;23;6835;-76
2024/01/25 10:24:02;;;;;;;;;;;;;;;13.36;59.20;101944.44;6090382;23;7401;-76
2024/01/25 10:26:28;;;;;;;;;;;;;;;13.53;58.84;101943.81;6088823;23;7144;-76
2024/01/25 10:28:54;;;;;;;;;;;;;;;13.65;58.36;101938.53;6088795;23;6819;-76
2024/01/25 10:31:25;;;;;;;;;;;;;;;13.73;58.30;101931.25;6063938;23;6879;-76
2024/01/25 10:33:53;;;;;;;;;;;;;;;13.77;57.51;101922.91;6090189;23;7327;-76
2024/01/25 10:36:21;;;;;;;;;;;;;;;13.84;58.20;101919.88;6065884;23;6981;-77
2024/01/25 10:38:53;;;;;;;;;;;;;;;13.98;57.82;101925.84;6089603;23;6763;-77
2024/01/25 10:41:19;;;;;;;;;;;;;;;14.18;57.56;101928.69;6087597;23;7219;-76
2024/01/25 10:43:45;;;;;;;;;;;;;;;14.42;57.36;101911.16;6112244;23;7102;-76
2024/01/25 10:46:11;;;;;;;;;;;;;;;14.64;56.89;101908.91;6113604;23;6997;-76
2024/01/25 10:48:38;;;;;;;;;;;;;;;14.77;56.56;101902.75;6065327;23;6979;-76
2024/01/25 10:51:05;;;;;;;;;;;;;;;14.93;55.93;101895.06;6065273;23;6938;-76
2024/01/25 10:53:34;;;;;;;;;;;;;;;15.03;55.12;101882.63;6113237;23;6767;-76
2024/01/25 10:56:01;;;;;;;;;;;;;;;15.09;55.18;101876.09;6062580;23;7035;-76
2024/01/25 10:58:35;;;;;;;;;;;;;;;15.22;55.07;101882.81;6088980;23;6933;-76
2024/01/25 11:01:03;;;;;;;;;;;;;;;15.35;54.85;101879.13;6065127;23;7017;-77
2024/01/25 11:03:33;;;;;;;;;;;;;;;15.46;54.60;101871.09;6112820;23;6766;-77
2024/01/25 11:06:10;;;;;;;;;;;;;;;15.55;53.82;101861.22;6089058;23;6947;-76
2024/01/25 11:08:38;;;;;;;;;;;;;;;15.64;53.65;101846.16;6113073;23;6783;-76
2024/01/25 11:11:09;;;;;;;;;;;;;;;15.76;53.57;101842.44;6087099;23;6978;-76
2024/01/25 11:13:35;;;;;;;;;;;;;;;15.80;52.77;101842.66;6088614;23;6787;-76
2024/01/25 11:16:16;;;;;;;;;;;;;;;15.87;52.46;101846.44;6089556;23;6751;-77
2024/01/25 11:18:55;;;;;;;;;;;;;;;15.98;52.38;101843.50;6090268;23;7173;-76
2024/01/25 11:21:37;;;;;;;;;;;;;;;16.13;52.29;101841.69;6112661;23;6951;-76
2024/01/25 11:24:03;;;;;;;;;;;;;;;16.34;52.19;101820.22;6087371;23;6787;-76
2024/01/25 11:26:32;;;;;;;;;;;;;;;16.61;51.85;101817.13;6089194;23;6945;-76
2024/01/25 11:29:00;;;;;;;;;;;;;;;16.84;51.37;101810.41;6113213;23;6949;-77
2024/01/25 11:31:27;;;;;;;;;;;;;;;16.94;50.81;101804.81;6046422;23;7834;-75
2024/01/25 11:33:58;;;;;;;;;;;;;;;16.92;50.26;101797.81;6060445;23;6812;-76
2024/01/25 11:47:11;;;;;;;;;;;;;;;16.37;49.89;101778.97;6045566;23;6752;-76
2024/01/25 11:49:37;;;;;;;;;;;;;;;16.30;50.14;101771.72;6061216;23;6961;-76
2024/01/25 12:06:58;;;;;;;;;;;;;;;16.33;50.31;101759.81;6042464;23;6886;-84
2024/01/25 12:09:43;;;;;;;;;;;;;;;16.58;50.15;101767.81;6026497;23;6931;-83
2024/01/25 12:19:49;;;;;;;;;;;;;;;17.24;48.66;101768.97;6038785;23;7090;-78
2024/01/25 12:22:21;;;;;;;;;;;;;;;17.38;48.51;101769.53;6036077;23;6983;-77
2024/01/25 12:24:48;;;;;;;;;;;;;;;17.41;47.63;101770.56;6036320;23;6771;-78
2024/01/25 12:27:15;;;;;;;;;;;;;;;17.36;47.68;101764.31;6036049;23;6785;-78
2024/01/25 12:29:43;;;;;;;;;;;;;;;17.26;47.58;101765.63;6035664;23;6779;-78
2024/01/25 12:32:09;;;;;;;;;;;;;;;17.14;47.42;101766.00;6058780;23;6958;-78
2024/01/25 12:34:37;;;;;;;;;;;;;;;17.01;47.83;101767.19;6036784;23;6779;-78
2024/01/25 12:37:03;;;;;;;;;;;;;;;16.88;48.21;101764.81;6041842;23;6772;-77
2024/01/25 12:39:28;;;;;;;;;;;;;;;16.78;48.15;101764.41;6046263;23;7092;-77
2024/01/25 12:41:54;;;;;;;;;;;;;;;16.70;48.10;101751.97;6046883;23;6787;-77
2024/01/25 12:44:20;;;;;;;;;;;;;;;16.63;48.14;101750.81;6047128;23;7229;-76
2024/01/25 12:46:45;;;;;;;;;;;;;;;16.56;48.19;101746.16;6046802;23;6771;-76
2024/01/25 12:49:11;;;;;;;;;;;;;;;16.49;47.95;101724.31;6047486;23;6819;-76
2024/01/25 12:51:37;;;;;;;;;;;;;;;16.43;48.21;101727.50;6046675;23;6863;-76
2024/01/25 12:54:03;;;;;;;;;;;;;;;16.38;47.78;101739.34;6051004;23;6963;-76
2024/01/25 12:56:28;;;;;;;;;;;;;;;16.32;48.05;101741.63;6048340;23;6948;-76
2024/01/25 12:58:54;;;;;;;;;;;;;;;16.29;48.29;101733.75;6041903;23;6922;-76
2024/01/25 13:01:20;;;;;;;;;;;;;;;16.28;48.41;101731.97;6065011;23;6782;-76
2024/01/25 13:03:46;;;;;;;;;;;;;;;16.29;48.54;101733.75;6064080;23;7208;-76
2024/01/25 13:06:12;;;;;;;;;;;;;;;16.29;48.39;101728.56;6043611;23;6974;-76
2024/01/25 13:08:39;;;;;;;;;;;;;;;16.29;48.48;101732.06;6061550;23;7029;-77
2024/01/25 13:11:05;;;;;;;;;;;;;;;16.31;48.03;101733.00;6065338;23;6958;-76
2024/01/25 13:13:30;;;;;;;;;;;;;;;16.32;47.95;101720.94;6040378;23;6926;-76
2024/01/25 13:15:56;;;;;;;;;;;;;;;16.30;48.06;101705.38;6062893;23;6942;-76
2024/01/25 13:18:21;;;;;;;;;;;;;;;16.29;47.85;101697.53;6064120;23;6815;-76
2024/01/25 13:20:47;;;;;;;;;;;;;;;16.26;47.74;101682.75;6064130;23;6974;-76
2024/01/25 13:23:13;;;;;;;;;;;;;;;16.23;48.03;101688.69;6045992;23;7116;-77
2024/01/25 13:25:39;;;;;;;;;;;;;;;16.22;47.95;101691.19;6071265;23;6762;-76
2024/01/25 13:28:05;;;;;;;;;;;;;;;16.19;47.84;101684.19;6068955;23;6823;-74
2024/01/25 13:30:30;;;;;;;;;;;;;;;16.15;48.17;101682.28;6064580;23;6910;-74
2024/01/25 13:32:56;;;;;;;;;;;;;;;16.09;47.94;101680.31;6066032;23;6957;-74
2024/01/25 13:35:22;;;;;;;;;;;;;;;16.06;48.23;101681.84;6064939;23;6962;-74
2024/01/25 13:37:47;;;;;;;;;;;;;;;16.03;48.25;101689.44;6067642;23;6822;-75
2024/01/25 13:40:13;;;;;;;;;;;;;;;16.00;47.94;101685.06;6065377;23;6941;-73
2024/01/25 13:42:38;;;;;;;;;;;;;;;15.94;48.06;101685.66;6041130;23;6938;-73
2024/01/25 13:45:07;;;;;;;;;;;;;;;15.89;48.19;101681.94;6065680;23;6771;-75
2024/01/25 13:47:32;;;;;;;;;;;;;;;15.84;47.83;101680.84;6041482;23;7018;-73
2024/01/25 13:49:58;;;;;;;;;;;;;;;15.80;48.22;101681.50;6065711;23;6762;-75
2024/01/25 13:52:24;;;;;;;;;;;;;;;15.73;48.18;101677.75;6065779;23;6973;-73
2024/01/25 13:54:49;;;;;;;;;;;;;;;15.69;48.88;101684.47;6066803;23;6762;-74
2024/01/25 13:57:15;;;;;;;;;;;;;;;15.64;48.05;101675.59;6065259;23;6758;-74
2024/01/25 13:59:41;;;;;;;;;;;;;;;15.58;48.19;101664.97;6067263;23;7047;-73
2024/01/25 14:02:07;;;;;;;;;;;;;;;15.54;48.69;101660.47;6038078;23;6858;-73
2024/01/25 14:04:32;;;;;;;;;;;;;;;15.52;48.71;101662.09;6040533;23;7007;-74
2024/01/25 14:06:58;;;;;;;;;;;;;;;15.51;48.54;101657.75;6040978;23;6926;-75